sensor_id;sensor_type;location;lat;lon;timestamp;P1;durP1;ratioP1;P2;durP2;ratioP2
21843;SDS011;11084;52.482;9.108;2022-12-29T00:00:15;7.37;;;0.90;;
21843;SDS011;11084;52.482;9.108;2022-12-29T00:02:41;3.67;;;0.80;;
21843;SDS011;11084;52.482;9.108;2022-12-29T00:05:08;10.43;;;1.10;;
21843;SDS011;11084;52.482;9.108;2022-12-29T00:07:37;0.83;;;0.80;;
21843;SDS011;11084;52.482;9.108;2022-12-29T00:10:03;0.60;;;0.60;;
21843;SDS011;11084;52.482;9.108;2022-12-29T00:12:30;0.70;;;0.70;;
21843;SDS011;11084;52.482;9.108;2022-12-29T00:15:16;0.50;;;0.50;;
21843;SDS011;11084;52.482;9.108;2022-12-29T00:18:01;0.70;;;0.70;;
21843;SDS011;11084;52.482;9.108;2022-12-29T00:20:28;2.20;;;0.90;;
21843;SDS011;11084;52.482;9.108;2022-12-29T00:23:18;4.97;;;0.80;;
21843;SDS011;11084;52.482;9.108;2022-12-29T00:26:13;0.80;;;0.67;;
21843;SDS011;11084;52.482;9.108;2022-12-29T00:29:11;1.93;;;0.80;;
21843;SDS011;11084;52.482;9.108;2022-12-29T00:31:55;0.90;;;0.70;;
21843;SDS011;11084;52.482;9.108;2022-12-29T00:34:41;0.70;;;0.60;;
21843;SDS011;11084;52.482;9.108;2022-12-29T00:37:26;1.00;;;0.90;;
21843;SDS011;11084;52.482;9.108;2022-12-29T00:40:12;1.20;;;1.10;;
21843;SDS011;11084;52.482;9.108;2022-12-29T00:42:57;0.60;;;0.60;;
21843;SDS011;11084;52.482;9.108;2022-12-29T00:45:48;0.63;;;0.60;;
21843;SDS011;11084;52.482;9.108;2022-12-29T00:48:15;0.80;;;0.67;;
21843;SDS011;11084;52.482;9.108;2022-12-29T00:51:00;1.07;;;0.80;;
21843;SDS011;11084;52.482;9.108;2022-12-29T00:53:27;1.03;;;0.70;;
21843;SDS011;11084;52.482;9.108;2022-12-29T00:55:53;2.37;;;0.87;;
21843;SDS011;11084;52.482;9.108;2022-12-29T00:58:19;4.60;;;0.53;;
21843;SDS011;11084;52.482;9.108;2022-12-29T01:00:46;1.30;;;0.77;;
21843;SDS011;11084;52.482;9.108;2022-12-29T01:03:12;0.67;;;0.67;;
21843;SDS011;11084;52.482;9.108;2022-12-29T01:05:39;0.67;;;0.67;;
21843;SDS011;11084;52.482;9.108;2022-12-29T01:08:05;0.60;;;0.60;;
21843;SDS011;11084;52.482;9.108;2022-12-29T01:10:31;0.63;;;0.63;;
21843;SDS011;11084;52.482;9.108;2022-12-29T01:12:58;0.73;;;0.70;;
21843;SDS011;11084;52.482;9.108;2022-12-29T01:15:24;0.43;;;0.43;;
21843;SDS011;11084;52.482;9.108;2022-12-29T01:17:51;1.17;;;0.90;;
21843;SDS011;11084;52.482;9.108;2022-12-29T01:20:17;0.60;;;0.50;;
21843;SDS011;11084;52.482;9.108;2022-12-29T01:22:44;2.70;;;0.90;;
21843;SDS011;11084;52.482;9.108;2022-12-29T01:25:10;0.50;;;0.50;;
21843;SDS011;11084;52.482;9.108;2022-12-29T01:27:37;1.13;;;0.73;;
21843;SDS011;11084;52.482;9.108;2022-12-29T01:30:03;2.20;;;0.80;;
21843;SDS011;11084;52.482;9.108;2022-12-29T01:32:30;1.77;;;0.70;;
21843;SDS011;11084;52.482;9.108;2022-12-29T01:34:57;0.83;;;0.57;;
21843;SDS011;11084;52.482;9.108;2022-12-29T01:37:24;3.27;;;0.60;;
21843;SDS011;11084;52.482;9.108;2022-12-29T01:39:51;0.67;;;0.60;;
21843;SDS011;11084;52.482;9.108;2022-12-29T01:42:18;0.70;;;0.70;;
21843;SDS011;11084;52.482;9.108;2022-12-29T01:44:57;1.27;;;0.63;;
21843;SDS011;11084;52.482;9.108;2022-12-29T01:50:14;1.80;;;0.80;;
21843;SDS011;11084;52.482;9.108;2022-12-29T01:55:31;0.63;;;0.63;;
21843;SDS011;11084;52.482;9.108;2022-12-29T01:58:06;0.83;;;0.70;;
21843;SDS011;11084;52.482;9.108;2022-12-29T02:00:33;5.30;;;0.63;;
21843;SDS011;11084;52.482;9.108;2022-12-29T02:02:59;2.33;;;0.60;;
21843;SDS011;11084;52.482;9.108;2022-12-29T02:05:27;0.83;;;0.60;;
21843;SDS011;11084;52.482;9.108;2022-12-29T02:08:03;0.57;;;0.57;;
21843;SDS011;11084;52.482;9.108;2022-12-29T02:10:33;0.60;;;0.60;;
21843;SDS011;11084;52.482;9.108;2022-12-29T02:13:01;2.73;;;0.70;;
21843;SDS011;11084;52.482;9.108;2022-12-29T02:15:36;0.97;;;0.73;;
21843;SDS011;11084;52.482;9.108;2022-12-29T02:27:43;0.40;;;0.40;;
21843;SDS011;11084;52.482;9.108;2022-12-29T02:31:01;0.70;;;0.50;;
21843;SDS011;11084;52.482;9.108;2022-12-29T02:45:53;3.30;;;0.50;;
21843;SDS011;11084;52.482;9.108;2022-12-29T02:48:45;0.40;;;0.40;;
21843;SDS011;11084;52.482;9.108;2022-12-29T02:51:20;0.50;;;0.50;;
21843;SDS011;11084;52.482;9.108;2022-12-29T02:53:56;0.80;;;0.30;;
21843;SDS011;11084;52.482;9.108;2022-12-29T02:56:42;0.57;;;0.40;;
21843;SDS011;11084;52.482;9.108;2022-12-29T02:59:09;0.40;;;0.40;;
21843;SDS011;11084;52.482;9.108;2022-12-29T03:21:55;0.30;;;0.30;;
21843;SDS011;11084;52.482;9.108;2022-12-29T03:24:53;0.43;;;0.40;;
21843;SDS011;11084;52.482;9.108;2022-12-29T03:27:39;1.03;;;0.40;;
21843;SDS011;11084;52.482;9.108;2022-12-29T03:30:13;0.30;;;0.30;;
21843;SDS011;11084;52.482;9.108;2022-12-29T03:35:13;0.60;;;0.50;;
21843;SDS011;11084;52.482;9.108;2022-12-29T03:37:45;0.30;;;0.30;;
21843;SDS011;11084;52.482;9.108;2022-12-29T03:40:50;1.60;;;0.50;;
21843;SDS011;11084;52.482;9.108;2022-12-29T03:43:23;0.23;;;0.23;;
21843;SDS011;11084;52.482;9.108;2022-12-29T03:45:50;0.20;;;0.20;;
21843;SDS011;11084;52.482;9.108;2022-12-29T03:48:17;0.47;;;0.40;;
21843;SDS011;11084;52.482;9.108;2022-12-29T03:50:44;0.30;;;0.30;;
21843;SDS011;11084;52.482;9.108;2022-12-29T03:53:10;0.50;;;0.50;;
21843;SDS011;11084;52.482;9.108;2022-12-29T03:55:38;1.43;;;0.43;;
21843;SDS011;11084;52.482;9.108;2022-12-29T03:58:05;1.60;;;0.53;;
21843;SDS011;11084;52.482;9.108;2022-12-29T04:01:04;0.30;;;0.30;;
21843;SDS011;11084;52.482;9.108;2022-12-29T04:03:33;0.40;;;0.40;;
21843;SDS011;11084;52.482;9.108;2022-12-29T04:06:00;0.90;;;0.30;;
21843;SDS011;11084;52.482;9.108;2022-12-29T04:08:31;2.13;;;0.33;;
21843;SDS011;11084;52.482;9.108;2022-12-29T04:10:57;0.53;;;0.40;;
21843;SDS011;11084;52.482;9.108;2022-12-29T04:13:24;0.30;;;0.30;;
21843;SDS011;11084;52.482;9.108;2022-12-29T04:15:50;0.47;;;0.47;;
21843;SDS011;11084;52.482;9.108;2022-12-29T04:18:17;0.30;;;0.30;;
21843;SDS011;11084;52.482;9.108;2022-12-29T04:20:44;0.50;;;0.50;;
21843;SDS011;11084;52.482;9.108;2022-12-29T04:23:27;0.40;;;0.40;;
21843;SDS011;11084;52.482;9.108;2022-12-29T04:25:56;0.73;;;0.40;;
21843;SDS011;11084;52.482;9.108;2022-12-29T04:28:22;0.40;;;0.40;;
21843;SDS011;11084;52.482;9.108;2022-12-29T04:31:12;2.73;;;0.40;;
21843;SDS011;11084;52.482;9.108;2022-12-29T04:33:40;0.30;;;0.30;;
21843;SDS011;11084;52.482;9.108;2022-12-29T04:36:07;0.37;;;0.30;;
21843;SDS011;11084;52.482;9.108;2022-12-29T04:38:35;2.53;;;0.60;;
21843;SDS011;11084;52.482;9.108;2022-12-29T04:41:03;0.40;;;0.40;;
21843;SDS011;11084;52.482;9.108;2022-12-29T04:43:30;0.63;;;0.37;;
21843;SDS011;11084;52.482;9.108;2022-12-29T04:46:09;1.10;;;0.60;;
21843;SDS011;11084;52.482;9.108;2022-12-29T04:49:05;2.27;;;0.53;;
21843;SDS011;11084;52.482;9.108;2022-12-29T04:51:51;1.43;;;0.40;;
21843;SDS011;11084;52.482;9.108;2022-12-29T04:54:18;0.30;;;0.30;;
21843;SDS011;11084;52.482;9.108;2022-12-29T04:56:52;0.70;;;0.67;;
21843;SDS011;11084;52.482;9.108;2022-12-29T04:59:18;0.50;;;0.50;;
21843;SDS011;11084;52.482;9.108;2022-12-29T05:01:48;0.33;;;0.30;;
21843;SDS011;11084;52.482;9.108;2022-12-29T05:04:14;0.30;;;0.30;;
21843;SDS011;11084;52.482;9.108;2022-12-29T05:06:42;1.00;;;0.47;;
21843;SDS011;11084;52.482;9.108;2022-12-29T05:09:08;0.50;;;0.50;;
21843;SDS011;11084;52.482;9.108;2022-12-29T05:11:35;0.40;;;0.40;;
21843;SDS011;11084;52.482;9.108;2022-12-29T05:14:01;0.40;;;0.40;;
21843;SDS011;11084;52.482;9.108;2022-12-29T05:16:28;0.87;;;0.40;;
21843;SDS011;11084;52.482;9.108;2022-12-29T05:18:54;2.03;;;0.50;;
21843;SDS011;11084;52.482;9.108;2022-12-29T05:21:21;0.30;;;0.30;;
21843;SDS011;11084;52.482;9.108;2022-12-29T05:23:48;5.23;;;0.40;;
21843;SDS011;11084;52.482;9.108;2022-12-29T05:26:14;0.47;;;0.47;;
21843;SDS011;11084;52.482;9.108;2022-12-29T05:28:59;0.50;;;0.50;;
21843;SDS011;11084;52.482;9.108;2022-12-29T05:31:26;0.30;;;0.30;;
21843;SDS011;11084;52.482;9.108;2022-12-29T05:33:52;3.70;;;0.30;;
21843;SDS011;11084;52.482;9.108;2022-12-29T05:36:18;1.40;;;0.47;;
21843;SDS011;11084;52.482;9.108;2022-12-29T05:38:49;0.53;;;0.53;;
21843;SDS011;11084;52.482;9.108;2022-12-29T05:41:16;1.50;;;0.50;;
21843;SDS011;11084;52.482;9.108;2022-12-29T05:43:45;1.07;;;0.30;;
21843;SDS011;11084;52.482;9.108;2022-12-29T05:46:29;0.33;;;0.30;;
21843;SDS011;11084;52.482;9.108;2022-12-29T05:49:28;0.30;;;0.30;;
21843;SDS011;11084;52.482;9.108;2022-12-29T05:51:57;0.40;;;0.40;;
21843;SDS011;11084;52.482;9.108;2022-12-29T05:54:24;0.30;;;0.30;;
21843;SDS011;11084;52.482;9.108;2022-12-29T05:56:51;0.50;;;0.40;;
21843;SDS011;11084;52.482;9.108;2022-12-29T05:59:17;1.60;;;0.50;;
21843;SDS011;11084;52.482;9.108;2022-12-29T06:01:43;2.83;;;0.47;;
21843;SDS011;11084;52.482;9.108;2022-12-29T06:04:10;1.90;;;0.60;;
21843;SDS011;11084;52.482;9.108;2022-12-29T06:06:38;1.20;;;0.40;;
21843;SDS011;11084;52.482;9.108;2022-12-29T06:09:05;0.77;;;0.50;;
21843;SDS011;11084;52.482;9.108;2022-12-29T06:11:31;2.83;;;0.70;;
21843;SDS011;11084;52.482;9.108;2022-12-29T06:13:59;6.07;;;0.60;;
21843;SDS011;11084;52.482;9.108;2022-12-29T06:16:25;2.00;;;0.53;;
21843;SDS011;11084;52.482;9.108;2022-12-29T06:18:55;1.03;;;0.70;;
21843;SDS011;11084;52.482;9.108;2022-12-29T06:21:23;6.80;;;0.87;;
21843;SDS011;11084;52.482;9.108;2022-12-29T06:23:49;1.70;;;0.63;;
21843;SDS011;11084;52.482;9.108;2022-12-29T06:26:16;1.17;;;0.60;;
21843;SDS011;11084;52.482;9.108;2022-12-29T06:28:44;0.70;;;0.40;;
21843;SDS011;11084;52.482;9.108;2022-12-29T06:31:11;1.43;;;0.50;;
21843;SDS011;11084;52.482;9.108;2022-12-29T06:33:37;2.00;;;0.40;;
21843;SDS011;11084;52.482;9.108;2022-12-29T06:36:04;1.03;;;0.33;;
21843;SDS011;11084;52.482;9.108;2022-12-29T06:38:30;0.63;;;0.47;;
21843;SDS011;11084;52.482;9.108;2022-12-29T06:40:57;0.40;;;0.40;;
21843;SDS011;11084;52.482;9.108;2022-12-29T06:43:43;0.30;;;0.20;;
21843;SDS011;11084;52.482;9.108;2022-12-29T06:46:27;0.40;;;0.30;;
21843;SDS011;11084;52.482;9.108;2022-12-29T06:51:23;0.53;;;0.30;;
21843;SDS011;11084;52.482;9.108;2022-12-29T06:53:49;1.07;;;0.20;;
21843;SDS011;11084;52.482;9.108;2022-12-29T06:56:16;1.03;;;0.33;;
21843;SDS011;11084;52.482;9.108;2022-12-29T06:58:42;1.80;;;0.50;;
21843;SDS011;11084;52.482;9.108;2022-12-29T07:01:08;0.83;;;0.30;;
21843;SDS011;11084;52.482;9.108;2022-12-29T07:03:35;0.73;;;0.53;;
21843;SDS011;11084;52.482;9.108;2022-12-29T07:06:01;0.43;;;0.37;;
21843;SDS011;11084;52.482;9.108;2022-12-29T07:08:27;0.20;;;0.20;;
21843;SDS011;11084;52.482;9.108;2022-12-29T07:10:54;0.83;;;0.30;;
21843;SDS011;11084;52.482;9.108;2022-12-29T07:13:20;0.73;;;0.43;;
21843;SDS011;11084;52.482;9.108;2022-12-29T07:15:46;3.63;;;0.20;;
21843;SDS011;11084;52.482;9.108;2022-12-29T07:18:12;0.70;;;0.30;;
21843;SDS011;11084;52.482;9.108;2022-12-29T07:20:39;0.80;;;0.40;;
21843;SDS011;11084;52.482;9.108;2022-12-29T07:23:05;0.43;;;0.43;;
21843;SDS011;11084;52.482;9.108;2022-12-29T07:25:31;1.60;;;0.50;;
21843;SDS011;11084;52.482;9.108;2022-12-29T07:28:00;0.40;;;0.40;;
21843;SDS011;11084;52.482;9.108;2022-12-29T07:30:26;0.77;;;0.37;;
21843;SDS011;11084;52.482;9.108;2022-12-29T07:32:53;1.70;;;0.50;;
21843;SDS011;11084;52.482;9.108;2022-12-29T07:35:19;1.43;;;0.70;;
21843;SDS011;11084;52.482;9.108;2022-12-29T07:37:45;1.23;;;0.70;;
21843;SDS011;11084;52.482;9.108;2022-12-29T07:40:12;0.40;;;0.40;;
21843;SDS011;11084;52.482;9.108;2022-12-29T07:42:38;2.57;;;0.53;;
21843;SDS011;11084;52.482;9.108;2022-12-29T07:45:07;1.63;;;0.57;;
21843;SDS011;11084;52.482;9.108;2022-12-29T07:48:02;2.33;;;0.67;;
21843;SDS011;11084;52.482;9.108;2022-12-29T07:50:29;0.63;;;0.50;;
21843;SDS011;11084;52.482;9.108;2022-12-29T07:52:55;3.83;;;0.93;;
21843;SDS011;11084;52.482;9.108;2022-12-29T07:55:22;2.20;;;0.60;;
21843;SDS011;11084;52.482;9.108;2022-12-29T07:57:48;3.47;;;0.80;;
21843;SDS011;11084;52.482;9.108;2022-12-29T08:00:14;6.73;;;0.73;;
21843;SDS011;11084;52.482;9.108;2022-12-29T08:02:41;6.70;;;0.67;;
21843;SDS011;11084;52.482;9.108;2022-12-29T08:05:07;5.03;;;0.70;;
21843;SDS011;11084;52.482;9.108;2022-12-29T08:07:34;0.87;;;0.67;;
21843;SDS011;11084;52.482;9.108;2022-12-29T08:10:00;5.03;;;0.70;;
21843;SDS011;11084;52.482;9.108;2022-12-29T08:12:27;3.23;;;0.60;;
21843;SDS011;11084;52.482;9.108;2022-12-29T08:14:53;2.53;;;0.47;;
21843;SDS011;11084;52.482;9.108;2022-12-29T08:17:19;2.33;;;0.53;;
21843;SDS011;11084;52.482;9.108;2022-12-29T08:19:46;3.97;;;0.63;;
21843;SDS011;11084;52.482;9.108;2022-12-29T08:22:13;5.20;;;0.83;;
21843;SDS011;11084;52.482;9.108;2022-12-29T08:24:40;1.30;;;0.60;;
21843;SDS011;11084;52.482;9.108;2022-12-29T08:27:06;1.07;;;0.60;;
21843;SDS011;11084;52.482;9.108;2022-12-29T08:29:34;1.73;;;0.50;;
21843;SDS011;11084;52.482;9.108;2022-12-29T08:32:00;5.37;;;0.90;;
21843;SDS011;11084;52.482;9.108;2022-12-29T08:34:26;4.07;;;0.80;;
21843;SDS011;11084;52.482;9.108;2022-12-29T08:36:53;7.37;;;0.87;;
21843;SDS011;11084;52.482;9.108;2022-12-29T08:39:19;7.63;;;1.70;;
21843;SDS011;11084;52.482;9.108;2022-12-29T08:41:45;1.53;;;0.80;;
21843;SDS011;11084;52.482;9.108;2022-12-29T08:44:11;9.23;;;1.17;;
21843;SDS011;11084;52.482;9.108;2022-12-29T08:46:37;5.07;;;0.90;;
21843;SDS011;11084;52.482;9.108;2022-12-29T08:49:04;2.33;;;1.23;;
21843;SDS011;11084;52.482;9.108;2022-12-29T08:51:31;1.77;;;0.70;;
21843;SDS011;11084;52.482;9.108;2022-12-29T08:53:58;3.63;;;1.00;;
21843;SDS011;11084;52.482;9.108;2022-12-29T08:56:25;3.17;;;1.13;;
21843;SDS011;11084;52.482;9.108;2022-12-29T08:58:54;4.13;;;1.20;;
21843;SDS011;11084;52.482;9.108;2022-12-29T09:01:25;5.43;;;0.80;;
21843;SDS011;11084;52.482;9.108;2022-12-29T09:03:52;2.00;;;0.93;;
21843;SDS011;11084;52.482;9.108;2022-12-29T09:06:19;8.30;;;1.10;;
21843;SDS011;11084;52.482;9.108;2022-12-29T09:08:46;2.53;;;0.80;;
21843;SDS011;11084;52.482;9.108;2022-12-29T09:11:17;2.77;;;1.33;;
21843;SDS011;11084;52.482;9.108;2022-12-29T09:13:51;3.40;;;1.03;;
21843;SDS011;11084;52.482;9.108;2022-12-29T09:16:18;1.57;;;0.70;;
21843;SDS011;11084;52.482;9.108;2022-12-29T09:18:49;2.70;;;0.67;;
21843;SDS011;11084;52.482;9.108;2022-12-29T09:21:16;0.70;;;0.50;;
21843;SDS011;11084;52.482;9.108;2022-12-29T09:23:42;3.60;;;0.93;;
21843;SDS011;11084;52.482;9.108;2022-12-29T09:26:09;3.23;;;1.00;;
21843;SDS011;11084;52.482;9.108;2022-12-29T09:28:35;0.63;;;0.63;;
21843;SDS011;11084;52.482;9.108;2022-12-29T09:31:03;1.43;;;0.80;;
21843;SDS011;11084;52.482;9.108;2022-12-29T09:33:29;1.93;;;1.00;;
21843;SDS011;11084;52.482;9.108;2022-12-29T09:35:58;5.43;;;1.23;;
21843;SDS011;11084;52.482;9.108;2022-12-29T09:38:25;3.10;;;0.70;;
21843;SDS011;11084;52.482;9.108;2022-12-29T09:41:00;3.20;;;1.10;;
21843;SDS011;11084;52.482;9.108;2022-12-29T09:46:33;1.83;;;0.77;;
21843;SDS011;11084;52.482;9.108;2022-12-29T09:49:15;4.37;;;0.80;;
21843;SDS011;11084;52.482;9.108;2022-12-29T09:52:09;3.97;;;0.80;;
21843;SDS011;11084;52.482;9.108;2022-12-29T10:03:16;6.63;;;1.23;;
21843;SDS011;11084;52.482;9.108;2022-12-29T10:25:02;5.13;;;1.10;;
21843;SDS011;11084;52.482;9.108;2022-12-29T10:27:34;5.73;;;1.27;;
21843;SDS011;11084;52.482;9.108;2022-12-29T10:30:01;3.33;;;1.00;;
21843;SDS011;11084;52.482;9.108;2022-12-29T10:35:22;5.00;;;1.07;;
21843;SDS011;11084;52.482;9.108;2022-12-29T10:38:37;4.90;;;1.10;;
21843;SDS011;11084;52.482;9.108;2022-12-29T10:40:51;3.27;;;0.70;;
21843;SDS011;11084;52.482;9.108;2022-12-29T10:43:25;1.40;;;0.60;;
21843;SDS011;11084;52.482;9.108;2022-12-29T10:45:57;5.67;;;1.53;;
21843;SDS011;11084;52.482;9.108;2022-12-29T10:48:31;4.20;;;1.00;;
21843;SDS011;11084;52.482;9.108;2022-12-29T10:51:00;6.77;;;0.90;;
21843;SDS011;11084;52.482;9.108;2022-12-29T10:53:43;4.60;;;1.07;;
21843;SDS011;11084;52.482;9.108;2022-12-29T10:59:00;3.90;;;1.27;;
21843;SDS011;11084;52.482;9.108;2022-12-29T11:04:55;2.20;;;0.90;;
21843;SDS011;11084;52.482;9.108;2022-12-29T11:07:28;2.73;;;0.80;;
21843;SDS011;11084;52.482;9.108;2022-12-29T11:09:55;6.60;;;1.20;;
21843;SDS011;11084;52.482;9.108;2022-12-29T11:13:19;2.27;;;1.07;;
21843;SDS011;11084;52.482;9.108;2022-12-29T11:15:52;7.50;;;1.80;;
21843;SDS011;11084;52.482;9.108;2022-12-29T11:18:32;4.40;;;1.47;;
21843;SDS011;11084;52.482;9.108;2022-12-29T11:21:25;2.87;;;1.30;;
21843;SDS011;11084;52.482;9.108;2022-12-29T11:24:05;5.47;;;0.70;;
21843;SDS011;11084;52.482;9.108;2022-12-29T11:26:44;4.13;;;1.00;;
21843;SDS011;11084;52.482;9.108;2022-12-29T11:29:16;3.83;;;1.50;;
21843;SDS011;11084;52.482;9.108;2022-12-29T11:31:54;3.30;;;0.80;;
21843;SDS011;11084;52.482;9.108;2022-12-29T11:34:25;5.00;;;1.20;;
21843;SDS011;11084;52.482;9.108;2022-12-29T11:37:38;8.40;;;1.80;;
21843;SDS011;11084;52.482;9.108;2022-12-29T11:40:00;6.27;;;1.70;;
21843;SDS011;11084;52.482;9.108;2022-12-29T11:45:03;2.50;;;1.27;;
21843;SDS011;11084;52.482;9.108;2022-12-29T11:47:41;5.23;;;2.10;;
21843;SDS011;11084;52.482;9.108;2022-12-29T11:50:15;9.07;;;1.47;;
21843;SDS011;11084;52.482;9.108;2022-12-29T11:52:49;4.60;;;1.63;;
21843;SDS011;11084;52.482;9.108;2022-12-29T11:55:24;2.03;;;1.00;;
21843;SDS011;11084;52.482;9.108;2022-12-29T11:57:52;5.30;;;0.90;;
21843;SDS011;11084;52.482;9.108;2022-12-29T12:00:21;1.93;;;1.07;;
21843;SDS011;11084;52.482;9.108;2022-12-29T12:11:15;3.23;;;1.53;;
21843;SDS011;11084;52.482;9.108;2022-12-29T12:17:18;5.20;;;1.50;;
21843;SDS011;11084;52.482;9.108;2022-12-29T12:19:59;3.77;;;1.50;;
21843;SDS011;11084;52.482;9.108;2022-12-29T12:23:07;3.00;;;1.33;;
21843;SDS011;11084;52.482;9.108;2022-12-29T12:26:13;1.03;;;1.00;;
21843;SDS011;11084;52.482;9.108;2022-12-29T12:28:59;3.73;;;1.60;;
21843;SDS011;11084;52.482;9.108;2022-12-29T12:31:49;3.73;;;1.10;;
21843;SDS011;11084;52.482;9.108;2022-12-29T12:49:08;6.97;;;1.40;;
21843;SDS011;11084;52.482;9.108;2022-12-29T13:08:57;11.60;;;2.23;;
21843;SDS011;11084;52.482;9.108;2022-12-29T13:14:03;10.43;;;3.20;;
21843;SDS011;11084;52.482;9.108;2022-12-29T13:22:21;6.23;;;2.00;;
21843;SDS011;11084;52.482;9.108;2022-12-29T13:25:06;6.57;;;1.57;;
21843;SDS011;11084;52.482;9.108;2022-12-29T13:36:43;4.63;;;1.03;;
21843;SDS011;11084;52.482;9.108;2022-12-29T13:41:55;5.37;;;1.40;;
21843;SDS011;11084;52.482;9.108;2022-12-29T13:44:26;5.30;;;2.10;;
21843;SDS011;11084;52.482;9.108;2022-12-29T13:47:27;5.03;;;1.53;;
21843;SDS011;11084;52.482;9.108;2022-12-29T13:50:05;19.43;;;4.60;;
21843;SDS011;11084;52.482;9.108;2022-12-29T13:52:43;10.00;;;3.37;;
21843;SDS011;11084;52.482;9.108;2022-12-29T13:58:30;19.27;;;4.77;;
21843;SDS011;11084;52.482;9.108;2022-12-29T14:01:10;5.23;;;1.80;;
21843;SDS011;11084;52.482;9.108;2022-12-29T14:06:23;4.27;;;1.50;;
21843;SDS011;11084;52.482;9.108;2022-12-29T14:09:02;8.13;;;1.93;;
21843;SDS011;11084;52.482;9.108;2022-12-29T14:11:34;5.70;;;1.53;;
21843;SDS011;11084;52.482;9.108;2022-12-29T14:14:16;8.40;;;1.83;;
21843;SDS011;11084;52.482;9.108;2022-12-29T14:16:50;6.20;;;1.60;;
21843;SDS011;11084;52.482;9.108;2022-12-29T14:19:27;5.63;;;1.50;;
21843;SDS011;11084;52.482;9.108;2022-12-29T14:22:00;4.80;;;2.27;;
21843;SDS011;11084;52.482;9.108;2022-12-29T14:27:22;6.80;;;1.20;;
21843;SDS011;11084;52.482;9.108;2022-12-29T14:29:47;5.43;;;1.80;;
21843;SDS011;11084;52.482;9.108;2022-12-29T14:34:51;5.13;;;1.20;;
21843;SDS011;11084;52.482;9.108;2022-12-29T14:37:27;3.87;;;1.03;;
21843;SDS011;11084;52.482;9.108;2022-12-29T14:40:06;3.57;;;1.07;;
21843;SDS011;11084;52.482;9.108;2022-12-29T14:42:51;2.33;;;1.53;;
21843;SDS011;11084;52.482;9.108;2022-12-29T14:47:58;6.60;;;1.40;;
21843;SDS011;11084;52.482;9.108;2022-12-29T14:50:41;7.27;;;1.23;;
21843;SDS011;11084;52.482;9.108;2022-12-29T14:53:40;12.23;;;1.87;;
21843;SDS011;11084;52.482;9.108;2022-12-29T14:56:11;1.50;;;0.87;;
21843;SDS011;11084;52.482;9.108;2022-12-29T14:58:53;3.13;;;1.20;;
21843;SDS011;11084;52.482;9.108;2022-12-29T15:01:24;3.83;;;1.10;;
21843;SDS011;11084;52.482;9.108;2022-12-29T15:03:58;3.37;;;1.37;;
21843;SDS011;11084;52.482;9.108;2022-12-29T15:06:31;6.57;;;1.60;;
21843;SDS011;11084;52.482;9.108;2022-12-29T15:09:06;7.20;;;1.53;;
21843;SDS011;11084;52.482;9.108;2022-12-29T15:17:28;8.13;;;1.23;;
21843;SDS011;11084;52.482;9.108;2022-12-29T15:28:26;7.90;;;1.23;;
21843;SDS011;11084;52.482;9.108;2022-12-29T15:31:15;3.33;;;0.90;;
21843;SDS011;11084;52.482;9.108;2022-12-29T15:33:44;4.10;;;1.20;;
21843;SDS011;11084;52.482;9.108;2022-12-29T15:36:22;3.63;;;1.47;;
21843;SDS011;11084;52.482;9.108;2022-12-29T15:38:52;2.10;;;0.97;;
21843;SDS011;11084;52.482;9.108;2022-12-29T15:47:46;2.87;;;0.90;;
21843;SDS011;11084;52.482;9.108;2022-12-29T15:50:05;4.37;;;1.10;;
21843;SDS011;11084;52.482;9.108;2022-12-29T15:52:45;3.67;;;1.03;;
21843;SDS011;11084;52.482;9.108;2022-12-29T15:58:21;6.33;;;1.70;;
21843;SDS011;11084;52.482;9.108;2022-12-29T16:01:02;4.80;;;1.07;;
21843;SDS011;11084;52.482;9.108;2022-12-29T16:03:32;3.03;;;1.20;;
21843;SDS011;11084;52.482;9.108;2022-12-29T16:09:05;13.20;;;1.20;;
21843;SDS011;11084;52.482;9.108;2022-12-29T16:11:40;9.30;;;1.60;;
21843;SDS011;11084;52.482;9.108;2022-12-29T16:14:33;6.30;;;1.30;;
21843;SDS011;11084;52.482;9.108;2022-12-29T16:17:05;5.07;;;1.40;;
21843;SDS011;11084;52.482;9.108;2022-12-29T16:19:38;5.53;;;1.53;;
21843;SDS011;11084;52.482;9.108;2022-12-29T16:22:15;10.07;;;2.33;;
21843;SDS011;11084;52.482;9.108;2022-12-29T16:24:54;3.73;;;1.30;;
21843;SDS011;11084;52.482;9.108;2022-12-29T16:30:06;9.80;;;1.20;;
21843;SDS011;11084;52.482;9.108;2022-12-29T16:32:53;7.00;;;2.43;;
21843;SDS011;11084;52.482;9.108;2022-12-29T16:35:22;8.57;;;3.13;;
21843;SDS011;11084;52.482;9.108;2022-12-29T16:40:53;7.20;;;1.80;;
21843;SDS011;11084;52.482;9.108;2022-12-29T16:43:24;5.63;;;1.93;;
21843;SDS011;11084;52.482;9.108;2022-12-29T16:51:05;9.60;;;2.70;;
21843;SDS011;11084;52.482;9.108;2022-12-29T16:53:39;9.07;;;2.53;;
21843;SDS011;11084;52.482;9.108;2022-12-29T16:56:23;11.67;;;4.37;;
21843;SDS011;11084;52.482;9.108;2022-12-29T16:59:15;7.20;;;1.70;;
21843;SDS011;11084;52.482;9.108;2022-12-29T17:01:47;11.37;;;3.20;;
21843;SDS011;11084;52.482;9.108;2022-12-29T17:04:13;9.90;;;2.17;;
21843;SDS011;11084;52.482;9.108;2022-12-29T17:06:40;11.47;;;2.00;;
21843;SDS011;11084;52.482;9.108;2022-12-29T17:09:16;5.37;;;1.40;;
21843;SDS011;11084;52.482;9.108;2022-12-29T17:11:50;5.10;;;2.10;;
21843;SDS011;11084;52.482;9.108;2022-12-29T17:16:52;10.77;;;4.00;;
21843;SDS011;11084;52.482;9.108;2022-12-29T17:19:30;15.93;;;3.57;;
21843;SDS011;11084;52.482;9.108;2022-12-29T17:21:59;13.37;;;4.87;;
21843;SDS011;11084;52.482;9.108;2022-12-29T17:24:25;13.23;;;4.07;;
21843;SDS011;11084;52.482;9.108;2022-12-29T17:26:53;8.63;;;2.83;;
21843;SDS011;11084;52.482;9.108;2022-12-29T17:32:06;5.40;;;2.63;;
21843;SDS011;11084;52.482;9.108;2022-12-29T17:34:38;8.47;;;2.27;;
21843;SDS011;11084;52.482;9.108;2022-12-29T17:39:49;2.53;;;1.40;;
21843;SDS011;11084;52.482;9.108;2022-12-29T17:42:16;4.47;;;1.83;;
21843;SDS011;11084;52.482;9.108;2022-12-29T17:44:44;4.37;;;1.33;;
21843;SDS011;11084;52.482;9.108;2022-12-29T17:47:10;1.87;;;0.93;;
21843;SDS011;11084;52.482;9.108;2022-12-29T17:49:40;6.83;;;2.17;;
21843;SDS011;11084;52.482;9.108;2022-12-29T17:52:13;1.73;;;1.20;;
21843;SDS011;11084;52.482;9.108;2022-12-29T17:54:44;1.60;;;1.20;;
21843;SDS011;11084;52.482;9.108;2022-12-29T17:57:16;1.93;;;0.90;;
21843;SDS011;11084;52.482;9.108;2022-12-29T17:59:43;1.93;;;1.27;;
21843;SDS011;11084;52.482;9.108;2022-12-29T18:02:33;0.70;;;0.70;;
21843;SDS011;11084;52.482;9.108;2022-12-29T18:04:59;3.97;;;1.10;;
21843;SDS011;11084;52.482;9.108;2022-12-29T18:07:26;8.27;;;1.60;;
21843;SDS011;11084;52.482;9.108;2022-12-29T18:09:54;8.20;;;1.70;;
21843;SDS011;11084;52.482;9.108;2022-12-29T18:12:32;5.07;;;1.67;;
21843;SDS011;11084;52.482;9.108;2022-12-29T18:15:21;1.50;;;1.10;;
21843;SDS011;11084;52.482;9.108;2022-12-29T18:20:39;4.40;;;1.20;;
21843;SDS011;11084;52.482;9.108;2022-12-29T18:23:20;6.30;;;1.10;;
21843;SDS011;11084;52.482;9.108;2022-12-29T18:25:49;2.07;;;1.10;;
21843;SDS011;11084;52.482;9.108;2022-12-29T18:28:19;4.60;;;0.83;;
21843;SDS011;11084;52.482;9.108;2022-12-29T18:30:46;4.33;;;1.20;;
21843;SDS011;11084;52.482;9.108;2022-12-29T18:33:13;4.23;;;1.67;;
21843;SDS011;11084;52.482;9.108;2022-12-29T18:35:51;2.90;;;1.70;;
21843;SDS011;11084;52.482;9.108;2022-12-29T18:38:19;3.60;;;1.27;;
21843;SDS011;11084;52.482;9.108;2022-12-29T18:40:46;4.60;;;1.47;;
21843;SDS011;11084;52.482;9.108;2022-12-29T18:43:14;4.23;;;1.53;;
21843;SDS011;11084;52.482;9.108;2022-12-29T18:45:42;2.83;;;1.00;;
21843;SDS011;11084;52.482;9.108;2022-12-29T18:48:12;2.63;;;1.40;;
21843;SDS011;11084;52.482;9.108;2022-12-29T18:50:39;2.80;;;1.10;;
21843;SDS011;11084;52.482;9.108;2022-12-29T18:53:08;7.33;;;1.40;;
21843;SDS011;11084;52.482;9.108;2022-12-29T18:55:41;10.37;;;1.37;;
21843;SDS011;11084;52.482;9.108;2022-12-29T18:58:07;4.43;;;2.00;;
21843;SDS011;11084;52.482;9.108;2022-12-29T19:00:33;3.07;;;1.20;;